Time;durP1;ratioP1;P1;durP2;ratioP2;P2;SDS_P1;SDS_P2;PMS_P1;PMS_P2;Temp;Humidity;BMP_temperature;BMP_pressure;BME280_temperature;BME280_humidity;BME280_pressure;Samples;Min_cycle;Max_cycle;Signal;HPM_P1;HPM_P2
2022/09/23 00:02:11;;;;;;;59.42;3.83;;;;;;;;;;5072115;28;20205;-65
2022/09/23 00:04:38;;;;;;;58.78;3.15;;;;;;;;;;5071713;28;20697;-65
2022/09/23 00:07:05;;;;;;;59.15;3.40;;;;;;;;;;5071982;28;20205;-65
2022/09/23 00:09:32;;;;;;;59.40;2.92;;;;;;;;;;5070883;28;20215;-65
2022/09/23 00:12:00;;;;;;;59.55;3.88;;;;;;;;;;5071204;28;20215;-67
2022/09/23 00:14:27;;;;;;;59.22;3.25;;;;;;;;;;5071356;28;20713;-65
2022/09/23 00:16:54;;;;;;;59.03;3.35;;;;;;;;;;5071854;28;20205;-65
2022/09/23 00:19:23;;;;;;;59.88;3.35;;;;;;;;;;5071298;28;20307;-65
2022/09/23 00:21:50;;;;;;;59.00;3.50;;;;;;;;;;5071977;28;20208;-67
2022/09/23 00:24:18;;;;;;;64.68;4.07;;;;;;;;;;5071804;28;20232;-65
2022/09/23 00:26:45;;;;;;;58.95;3.20;;;;;;;;;;5072123;28;20205;-65
2022/09/23 00:29:12;;;;;;;60.63;3.67;;;;;;;;;;5070508;28;20240;-66
2022/09/23 00:31:39;;;;;;;59.47;3.50;;;;;;;;;;5071866;28;20585;-64
2022/09/23 00:34:06;;;;;;;59.70;4.07;;;;;;;;;;5068156;28;20241;-65
2022/09/23 00:36:35;;;;;;;58.83;3.13;;;;;;;;;;5071451;28;20209;-64
2022/09/23 00:39:02;;;;;;;58.85;3.30;;;;;;;;;;5071264;28;20584;-67
2022/09/23 00:41:30;;;;;;;59.38;3.90;;;;;;;;;;5071450;28;20213;-65
2022/09/23 00:43:58;;;;;;;59.28;3.67;;;;;;;;;;5071399;28;20237;-65
2022/09/23 00:46:28;;;;;;;60.42;4.45;;;;;;;;;;5071405;28;20251;-64
2022/09/23 00:48:57;;;;;;;58.55;2.75;;;;;;;;;;5071101;28;20228;-65
2022/09/23 00:51:26;;;;;;;59.50;3.80;;;;;;;;;;5078287;28;20209;-66
2022/09/23 00:53:54;;;;;;;60.08;3.80;;;;;;;;;;5077165;28;20228;-66
2022/09/23 00:56:23;;;;;;;60.55;3.72;;;;;;;;;;5077859;28;20215;-65
2022/09/23 01:01:55;;;;;;;58.97;3.10;;;;;;;;;;5071174;28;20227;-67
2022/09/23 01:04:23;;;;;;;60.55;3.70;;;;;;;;;;5058187;28;20233;-65
2022/09/23 01:06:50;;;;;;;58.80;3.55;;;;;;;;;;5072046;28;20259;-65
2022/09/23 01:09:19;;;;;;;59.15;3.50;;;;;;;;;;5076656;28;20231;-65
2022/09/23 01:11:49;;;;;;;58.88;3.67;;;;;;;;;;5077715;28;20222;-64
2022/09/23 01:14:25;;;;;;;59.28;3.40;;;;;;;;;;5071444;28;20233;-65
2022/09/23 01:16:54;;;;;;;59.90;3.65;;;;;;;;;;5057756;28;20205;-64
2022/09/23 01:19:28;;;;;;;60.38;5.32;;;;;;;;;;5057550;28;20699;-66
2022/09/23 01:22:00;;;;;;;59.28;3.90;;;;;;;;;;5057843;28;20209;-65
2022/09/23 01:24:42;;;;;;;59.10;4.30;;;;;;;;;;5057656;28;20237;-65
2022/09/23 01:27:14;;;;;;;60.03;3.70;;;;;;;;;;5055487;28;20216;-65
2022/09/23 01:30:02;;;;;;;60.60;3.33;;;;;;;;;;5056910;28;20240;-65
2022/09/23 01:32:36;;;;;;;59.65;3.50;;;;;;;;;;5057652;28;20214;-64
2022/09/23 01:35:05;;;;;;;59.08;3.72;;;;;;;;;;5056816;28;20248;-66
2022/09/23 01:37:35;;;;;;;60.65;3.78;;;;;;;;;;5058210;28;20216;-65
2022/09/23 01:40:05;;;;;;;58.90;3.85;;;;;;;;;;5077368;28;20294;-66
2022/09/23 01:42:38;;;;;;;58.55;3.22;;;;;;;;;;5077783;28;20744;-65
2022/09/23 01:45:07;;;;;;;59.10;3.20;;;;;;;;;;5077607;28;20229;-65
2022/09/23 01:47:38;;;;;;;58.80;3.10;;;;;;;;;;5077529;28;20273;-65
2022/09/23 01:50:54;;;;;;;58.72;2.95;;;;;;;;;;5076625;28;20211;-66
2022/09/23 01:52:55;;;;;;;59.10;3.70;;;;;;;;;;5077173;28;20201;-64
2022/09/23 01:55:25;;;;;;;59.50;3.40;;;;;;;;;;5076659;28;20232;-66
2022/09/23 01:57:55;;;;;;;59.05;3.10;;;;;;;;;;5077243;28;20696;-65
2022/09/23 02:00:24;;;;;;;58.50;2.90;;;;;;;;;;5065780;28;20297;-66
2022/09/23 02:02:54;;;;;;;58.60;2.90;;;;;;;;;;5053971;28;20332;-64
2022/09/23 02:05:25;;;;;;;59.10;3.50;;;;;;;;;;5054199;28;20252;-65
2022/09/23 02:07:54;;;;;;;59.40;3.60;;;;;;;;;;5053880;28;20703;-64
2022/09/23 02:10:23;;;;;;;59.25;3.35;;;;;;;;;;5057946;28;20215;-65
2022/09/23 02:12:51;;;;;;;58.53;2.95;;;;;;;;;;5073839;28;20585;-66
2022/09/23 02:15:19;;;;;;;58.90;3.53;;;;;;;;;;5073233;28;20393;-65
2022/09/23 02:17:49;;;;;;;58.72;3.00;;;;;;;;;;5073790;28;20224;-65
2022/09/23 02:20:20;;;;;;;60.20;3.20;;;;;;;;;;5074054;28;20208;-64
2022/09/23 02:22:52;;;;;;;59.35;3.65;;;;;;;;;;5074416;28;20216;-65
2022/09/23 02:25:20;;;;;;;59.55;3.42;;;;;;;;;;5074039;28;20241;-66
2022/09/23 02:27:50;;;;;;;59.17;3.10;;;;;;;;;;5073729;28;20218;-67
2022/09/23 02:30:19;;;;;;;58.55;2.95;;;;;;;;;;5073949;28;20505;-64
2022/09/23 02:32:50;;;;;;;58.83;3.60;;;;;;;;;;5073029;28;20217;-65
2022/09/23 02:35:21;;;;;;;58.60;3.00;;;;;;;;;;5072705;28;20244;-65
2022/09/23 02:37:54;;;;;;;61.05;3.83;;;;;;;;;;5073637;28;20295;-66
2022/09/23 02:40:24;;;;;;;58.80;2.80;;;;;;;;;;5073325;28;20458;-64
2022/09/23 02:42:58;;;;;;;58.55;3.40;;;;;;;;;;5071365;28;20205;-66
2022/09/23 02:45:25;;;;;;;59.78;3.90;;;;;;;;;;5073404;28;20602;-64
2022/09/23 02:47:55;;;;;;;58.70;2.90;;;;;;;;;;5073640;28;20218;-64
2022/09/23 02:50:24;;;;;;;58.78;3.13;;;;;;;;;;5073358;28;20209;-65
2022/09/23 02:52:51;;;;;;;58.60;3.22;;;;;;;;;;5072705;28;20203;-65
2022/09/23 02:55:19;;;;;;;58.38;3.05;;;;;;;;;;5072314;28;20914;-66
2022/09/23 02:57:47;;;;;;;59.00;3.53;;;;;;;;;;5072903;28;20212;-67
2022/09/23 03:00:15;;;;;;;59.30;3.53;;;;;;;;;;5072683;28;20674;-65
2022/09/23 03:02:57;;;;;;;59.05;3.10;;;;;;;;;;5073240;28;20202;-65
2022/09/23 03:05:29;;;;;;;59.28;3.55;;;;;;;;;;5070935;28;20229;-66
2022/09/23 03:08:05;;;;;;;58.90;2.80;;;;;;;;;;5073279;28;20676;-66
2022/09/23 03:10:36;;;;;;;58.67;3.30;;;;;;;;;;5072784;28;20576;-65
2022/09/23 03:13:10;;;;;;;58.90;3.13;;;;;;;;;;5072098;28;20209;-65
2022/09/23 03:15:39;;;;;;;60.03;4.68;;;;;;;;;;5070224;28;20227;-65
2022/09/23 03:18:10;;;;;;;58.75;3.08;;;;;;;;;;5072077;28;20208;-65
2022/09/23 03:20:42;;;;;;;59.13;3.33;;;;;;;;;;5072338;28;20746;-67
2022/09/23 03:23:11;;;;;;;61.85;4.13;;;;;;;;;;5072878;28;20306;-65
2022/09/23 03:25:40;;;;;;;59.08;3.72;;;;;;;;;;5072876;28;20229;-65
2022/09/23 03:28:07;;;;;;;59.08;3.25;;;;;;;;;;5072651;28;20272;-67
2022/09/23 03:30:35;;;;;;;60.30;3.83;;;;;;;;;;5072379;28;20578;-65
2022/09/23 03:33:04;;;;;;;59.50;3.50;;;;;;;;;;5071753;28;20589;-65
2022/09/23 03:35:32;;;;;;;59.78;3.70;;;;;;;;;;5072379;28;20240;-64
2022/09/23 03:38:06;;;;;;;59.65;4.05;;;;;;;;;;5071538;28;20612;-65
2022/09/23 03:40:35;;;;;;;58.03;3.25;;;;;;;;;;5072079;28;20209;-65
2022/09/23 03:43:03;;;;;;;58.50;3.25;;;;;;;;;;5072381;28;20201;-65
2022/09/23 03:45:32;;;;;;;58.83;3.40;;;;;;;;;;5071982;28;20239;-65
2022/09/23 03:47:59;;;;;;;60.08;4.25;;;;;;;;;;5070315;28;20681;-67
2022/09/23 03:50:27;;;;;;;58.67;3.45;;;;;;;;;;5071873;28;20239;-65
2022/09/23 03:52:54;;;;;;;58.70;3.65;;;;;;;;;;5071557;28;20211;-65
2022/09/23 03:55:23;;;;;;;58.55;3.38;;;;;;;;;;5071725;28;20231;-67
2022/09/23 03:57:50;;;;;;;58.05;2.95;;;;;;;;;;5071364;28;20207;-65
2022/09/23 04:00:17;;;;;;;58.67;3.30;;;;;;;;;;5071366;28;20201;-65
2022/09/23 04:02:44;;;;;;;59.58;4.88;;;;;;;;;;5072051;28;20692;-65
2022/09/23 04:05:12;;;;;;;58.70;3.60;;;;;;;;;;5071676;28;20228;-65
2022/09/23 04:07:39;;;;;;;59.25;4.07;;;;;;;;;;5072111;28;20216;-65
2022/09/23 04:10:08;;;;;;;60.50;4.60;;;;;;;;;;5071738;28;20231;-65
2022/09/23 04:12:37;;;;;;;59.67;3.42;;;;;;;;;;5071657;28;20206;-65
2022/09/23 04:15:04;;;;;;;59.25;3.40;;;;;;;;;;5071434;28;20546;-66
2022/09/23 04:17:31;;;;;;;58.60;3.08;;;;;;;;;;5071010;28;20218;-64
2022/09/23 04:19:59;;;;;;;58.72;3.28;;;;;;;;;;5068575;28;20205;-65
2022/09/23 04:22:26;;;;;;;58.35;3.20;;;;;;;;;;5071599;28;20212;-64
2022/09/23 04:24:53;;;;;;;60.20;3.97;;;;;;;;;;5071140;28;20233;-65
2022/09/23 04:27:20;;;;;;;58.70;4.25;;;;;;;;;;5071625;28;20268;-67
2022/09/23 04:29:49;;;;;;;58.70;3.13;;;;;;;;;;5071179;28;20232;-64
2022/09/23 04:32:16;;;;;;;58.83;3.20;;;;;;;;;;5071838;28;20212;-65
2022/09/23 04:34:43;;;;;;;61.15;3.80;;;;;;;;;;5070821;28;20239;-66
2022/09/23 04:37:10;;;;;;;62.72;4.80;;;;;;;;;;5071255;28;20211;-65
2022/09/23 04:39:37;;;;;;;57.83;3.25;;;;;;;;;;5070758;28;20594;-66
2022/09/23 04:42:04;;;;;;;58.63;3.05;;;;;;;;;;5071362;28;20208;-65
2022/09/23 04:44:31;;;;;;;58.28;3.00;;;;;;;;;;5071956;28;20317;-65
2022/09/23 04:47:00;;;;;;;59.58;3.60;;;;;;;;;;5071860;28;20204;-65
2022/09/23 04:49:32;;;;;;;60.47;3.97;;;;;;;;;;5071356;28;20225;-66
2022/09/23 04:51:59;;;;;;;58.85;3.50;;;;;;;;;;5069280;28;20301;-68
2022/09/23 04:54:27;;;;;;;58.80;3.65;;;;;;;;;;5070204;28;20228;-66
2022/09/23 04:56:54;;;;;;;59.38;3.42;;;;;;;;;;5071124;28;20212;-66
2022/09/23 04:59:21;;;;;;;59.00;3.33;;;;;;;;;;5070391;28;20234;-64
2022/09/23 05:01:50;;;;;;;59.00;3.47;;;;;;;;;;5071220;28;20214;-65
2022/09/23 05:04:18;;;;;;;58.80;3.35;;;;;;;;;;5071100;28;20231;-68
2022/09/23 05:06:46;;;;;;;58.70;3.47;;;;;;;;;;5071402;28;20710;-66
2022/09/23 05:09:15;;;;;;;58.83;3.05;;;;;;;;;;5070812;28;20723;-65
2022/09/23 05:11:42;;;;;;;58.65;3.20;;;;;;;;;;5071505;28;20205;-65
2022/09/23 05:14:10;;;;;;;58.90;3.50;;;;;;;;;;5070475;28;20239;-65
2022/09/23 05:16:37;;;;;;;61.50;4.40;;;;;;;;;;5071038;28;20211;-65
2022/09/23 05:19:04;;;;;;;58.08;3.13;;;;;;;;;;5069995;28;20207;-66
2022/09/23 05:21:32;;;;;;;58.88;3.42;;;;;;;;;;5070889;28;20256;-65
2022/09/23 05:23:59;;;;;;;59.20;3.92;;;;;;;;;;5068647;28;20226;-66
2022/09/23 05:26:28;;;;;;;59.40;3.30;;;;;;;;;;5071096;28;20203;-65
2022/09/23 05:28:55;;;;;;;58.55;2.95;;;;;;;;;;5070728;28;20202;-65
2022/09/23 05:31:23;;;;;;;61.92;4.15;;;;;;;;;;5071179;28;20211;-65
2022/09/23 05:33:51;;;;;;;58.60;3.45;;;;;;;;;;5070071;28;20611;-66
2022/09/23 05:36:19;;;;;;;58.50;3.00;;;;;;;;;;5072017;28;20208;-66
2022/09/23 05:38:50;;;;;;;59.22;3.45;;;;;;;;;;5073461;28;20209;-66
2022/09/23 05:41:18;;;;;;;59.72;3.55;;;;;;;;;;5074592;28;20211;-65
2022/09/23 05:43:46;;;;;;;58.80;3.80;;;;;;;;;;5074727;28;20207;-66
2022/09/23 05:46:14;;;;;;;58.47;3.00;;;;;;;;;;5074557;28;20205;-64
2022/09/23 05:48:42;;;;;;;59.30;3.30;;;;;;;;;;5074176;28;20211;-65
2022/09/23 05:51:11;;;;;;;59.35;4.40;;;;;;;;;;5074668;28;20236;-66
2022/09/23 05:53:39;;;;;;;59.17;3.30;;;;;;;;;;5073874;28;20233;-65
2022/09/23 05:56:07;;;;;;;59.20;3.20;;;;;;;;;;5071803;28;20212;-65
2022/09/23 05:58:35;;;;;;;58.75;3.13;;;;;;;;;;5073314;28;20209;-66
2022/09/23 06:01:02;;;;;;;61.60;4.13;;;;;;;;;;5074057;28;20585;-66
2022/09/23 06:03:29;;;;;;;59.80;3.75;;;;;;;;;;5074022;28;20232;-67
2022/09/23 06:05:56;;;;;;;58.55;3.08;;;;;;;;;;5074373;28;20212;-65
2022/09/23 06:08:24;;;;;;;58.28;3.35;;;;;;;;;;5074327;28;20214;-66
2022/09/23 06:10:51;;;;;;;58.97;3.60;;;;;;;;;;5074001;28;20232;-65
2022/09/23 06:13:19;;;;;;;57.80;2.90;;;;;;;;;;5074191;28;20570;-65
2022/09/23 06:15:46;;;;;;;60.83;4.75;;;;;;;;;;5073472;28;20312;-66
2022/09/23 06:18:13;;;;;;;58.95;3.63;;;;;;;;;;5073710;28;20205;-66
2022/09/23 06:20:41;;;;;;;59.35;3.50;;;;;;;;;;5073196;28;20691;-65
2022/09/23 06:23:08;;;;;;;58.80;3.30;;;;;;;;;;5074102;28;20205;-65
2022/09/23 06:25:37;;;;;;;58.97;3.42;;;;;;;;;;5073972;28;20531;-67
2022/09/23 06:28:06;;;;;;;59.10;3.90;;;;;;;;;;5071392;28;20316;-65
2022/09/23 06:30:34;;;;;;;58.70;3.08;;;;;;;;;;5073424;28;20221;-65
2022/09/23 06:33:01;;;;;;;58.38;3.00;;;;;;;;;;5073917;28;20247;-65
2022/09/23 06:35:31;;;;;;;61.65;3.80;;;;;;;;;;5072970;28;20728;-64
2022/09/23 06:38:00;;;;;;;58.60;3.67;;;;;;;;;;5073444;28;20622;-65
2022/09/23 06:40:27;;;;;;;58.90;3.63;;;;;;;;;;5072572;28;20580;-65
2022/09/23 06:42:58;;;;;;;59.28;3.10;;;;;;;;;;5073326;28;20227;-67
2022/09/23 06:45:26;;;;;;;59.20;3.80;;;;;;;;;;5073755;28;20298;-65
2022/09/23 06:47:56;;;;;;;59.38;3.70;;;;;;;;;;5072975;28;20255;-66
2022/09/23 06:50:24;;;;;;;59.08;3.95;;;;;;;;;;5072884;28;20229;-65
2022/09/23 06:52:54;;;;;;;58.60;3.00;;;;;;;;;;5073356;28;20205;-65
2022/09/23 06:55:22;;;;;;;58.90;3.78;;;;;;;;;;5072402;28;20252;-66
2022/09/23 06:57:49;;;;;;;59.22;3.58;;;;;;;;;;5073329;28;20212;-66
2022/09/23 07:00:16;;;;;;;58.50;3.25;;;;;;;;;;5070161;28;20206;-65
2022/09/23 07:02:43;;;;;;;58.58;3.17;;;;;;;;;;5072964;28;20586;-68
2022/09/23 07:05:11;;;;;;;59.40;3.60;;;;;;;;;;5073302;28;20225;-65
2022/09/23 07:07:39;;;;;;;59.08;3.35;;;;;;;;;;5073134;28;20213;-65
2022/09/23 07:10:07;;;;;;;58.87;3.33;;;;;;;;;;5072540;28;20281;-65
2022/09/23 07:12:34;;;;;;;59.85;4.38;;;;;;;;;;5073272;28;20490;-65
2022/09/23 07:15:01;;;;;;;60.00;4.63;;;;;;;;;;5072414;28;20225;-65
2022/09/23 07:17:29;;;;;;;59.10;3.77;;;;;;;;;;5072348;28;20205;-65
2022/09/23 07:19:57;;;;;;;59.88;5.00;;;;;;;;;;5071970;28;20447;-65
2022/09/23 07:22:26;;;;;;;58.97;3.83;;;;;;;;;;5072206;28;20216;-65
2022/09/23 07:24:54;;;;;;;59.27;4.13;;;;;;;;;;5072691;28;20816;-65
2022/09/23 07:27:23;;;;;;;59.37;3.80;;;;;;;;;;5072580;28;20451;-65
2022/09/23 07:29:50;;;;;;;59.00;4.23;;;;;;;;;;5072092;28;20487;-65
2022/09/23 07:32:18;;;;;;;59.20;3.97;;;;;;;;;;5070390;28;20810;-66
2022/09/23 07:34:45;;;;;;;58.80;3.60;;;;;;;;;;5072376;28;20481;-65
2022/09/23 07:37:13;;;;;;;58.23;3.20;;;;;;;;;;5071896;28;20455;-65
2022/09/23 07:39:41;;;;;;;59.37;4.23;;;;;;;;;;5072052;28;20447;-66
2022/09/23 07:42:12;;;;;;;58.70;3.47;;;;;;;;;;5071856;28;20459;-65
2022/09/23 07:44:39;;;;;;;59.53;3.57;;;;;;;;;;5072569;28;20475;-63
2022/09/23 07:47:06;;;;;;;60.10;3.67;;;;;;;;;;5072227;28;20452;-67
2022/09/23 07:49:35;;;;;;;59.77;3.80;;;;;;;;;;5071725;28;20454;-65
2022/09/23 07:52:03;;;;;;;59.23;3.60;;;;;;;;;;5072238;28;20447;-65
2022/09/23 07:54:31;;;;;;;59.20;3.77;;;;;;;;;;5072285;28;20475;-66
2022/09/23 07:56:59;;;;;;;59.37;3.77;;;;;;;;;;5071569;28;20487;-66
2022/09/23 07:59:26;;;;;;;59.60;3.80;;;;;;;;;;5070568;28;20454;-66
2022/09/23 08:01:55;;;;;;;58.40;3.40;;;;;;;;;;5068821;28;20471;-66
2022/09/23 08:04:23;;;;;;;61.17;5.13;;;;;;;;;;5071681;28;20467;-66
2022/09/23 08:06:52;;;;;;;59.37;3.70;;;;;;;;;;5072085;28;20451;-66
2022/09/23 08:09:20;;;;;;;59.60;4.00;;;;;;;;;;5071532;28;20461;-66
2022/09/23 08:11:48;;;;;;;59.27;3.87;;;;;;;;;;5071988;28;20874;-66
2022/09/23 08:14:17;;;;;;;60.13;3.80;;;;;;;;;;5071604;28;21022;-66
2022/09/23 08:16:46;;;;;;;58.57;3.43;;;;;;;;;;5071007;28;20945;-66
2022/09/23 08:19:13;;;;;;;59.40;4.10;;;;;;;;;;5071152;28;20962;-66
2022/09/23 08:21:41;;;;;;;59.57;4.07;;;;;;;;;;5071224;28;20454;-65
2022/09/23 08:24:08;;;;;;;58.90;3.80;;;;;;;;;;5071443;28;20467;-66
2022/09/23 08:26:36;;;;;;;59.37;3.83;;;;;;;;;;5071739;28;20447;-66
2022/09/23 08:29:03;;;;;;;58.80;3.50;;;;;;;;;;5071133;28;20451;-67
2022/09/23 08:31:32;;;;;;;58.77;3.50;;;;;;;;;;5071632;28;20484;-65
2022/09/23 08:33:59;;;;;;;60.83;4.60;;;;;;;;;;5068832;28;20479;-66
2022/09/23 08:36:26;;;;;;;58.70;3.50;;;;;;;;;;5071442;28;20459;-65
2022/09/23 08:38:56;;;;;;;58.33;3.10;;;;;;;;;;5070815;28;20793;-66
2022/09/23 08:41:26;;;;;;;58.60;3.20;;;;;;;;;;5071119;28;20523;-65
2022/09/23 08:43:55;;;;;;;63.57;3.10;;;;;;;;;;5070626;28;20477;-67
2022/09/23 08:46:25;;;;;;;59.87;4.13;;;;;;;;;;5071479;28;20461;-66
2022/09/23 08:48:54;;;;;;;60.07;3.80;;;;;;;;;;5071068;28;20457;-66
2022/09/23 08:51:23;;;;;;;58.30;2.70;;;;;;;;;;5071379;28;20482;-66
2022/09/23 08:53:50;;;;;;;58.60;3.10;;;;;;;;;;5071215;28;20474;-66
2022/09/23 08:56:20;;;;;;;58.50;3.30;;;;;;;;;;5071130;28;20456;-67
2022/09/23 08:58:54;;;;;;;58.17;3.00;;;;;;;;;;5070371;28;20968;-65
2022/09/23 09:01:23;;;;;;;58.87;3.53;;;;;;;;;;5071200;28;20955;-65
2022/09/23 09:03:52;;;;;;;59.20;3.50;;;;;;;;;;5070408;28;20494;-65
2022/09/23 09:06:23;;;;;;;59.20;3.50;;;;;;;;;;5068629;28;21011;-66
2022/09/23 09:08:53;;;;;;;59.43;3.23;;;;;;;;;;5070913;28;20454;-67
2022/09/23 09:11:22;;;;;;;57.77;2.70;;;;;;;;;;5074087;28;20491;-66
2022/09/23 09:13:52;;;;;;;58.57;3.27;;;;;;;;;;5075306;28;20478;-66
2022/09/23 09:16:25;;;;;;;58.50;3.10;;;;;;;;;;5075095;28;20451;-66
2022/09/23 09:18:54;;;;;;;58.50;3.17;;;;;;;;;;5074258;28;20536;-67
2022/09/23 09:21:25;;;;;;;58.37;3.17;;;;;;;;;;5074736;28;20446;-65
2022/09/23 09:23:54;;;;;;;59.07;3.17;;;;;;;;;;5074207;28;20479;-66
2022/09/23 09:26:22;;;;;;;58.80;3.33;;;;;;;;;;5075092;28;20545;-65
2022/09/23 09:28:50;;;;;;;58.70;3.10;;;;;;;;;;5074645;28;20447;-66
2022/09/23 09:31:22;;;;;;;58.00;3.37;;;;;;;;;;5075063;28;20489;-65
2022/09/23 09:33:57;;;;;;;59.27;3.53;;;;;;;;;;5075064;28;20483;-67
2022/09/23 09:36:30;;;;;;;59.63;3.23;;;;;;;;;;5072645;28;20455;-65
2022/09/23 09:38:58;;;;;;;58.67;3.30;;;;;;;;;;5073887;28;20469;-66
2022/09/23 09:41:30;;;;;;;61.63;3.90;;;;;;;;;;5074494;28;20950;-66
2022/09/23 09:43:58;;;;;;;59.20;3.27;;;;;;;;;;5073800;28;20474;-66
2022/09/23 09:46:36;;;;;;;58.87;2.90;;;;;;;;;;5074622;28;20558;-65
2022/09/23 09:49:05;;;;;;;58.90;3.07;;;;;;;;;;5074312;28;20444;-66
2022/09/23 09:51:34;;;;;;;58.13;2.80;;;;;;;;;;5074720;28;20490;-65
2022/09/23 09:54:16;;;;;;;58.10;2.80;;;;;;;;;;5074389;28;20557;-67
2022/09/23 09:56:44;;;;;;;58.20;2.73;;;;;;;;;;5074254;28;20443;-66
2022/09/23 09:59:12;;;;;;;60.00;3.10;;;;;;;;;;5073631;28;20525;-66
2022/09/23 10:01:39;;;;;;;57.97;2.40;;;;;;;;;;5074307;28;20478;-66
2022/09/23 10:04:07;;;;;;;57.97;2.73;;;;;;;;;;5073435;28;20478;-66
2022/09/23 10:06:36;;;;;;;57.67;2.37;;;;;;;;;;5071534;28;20914;-66
2022/09/23 10:09:05;;;;;;;57.80;2.20;;;;;;;;;;5073744;28;20473;-66
2022/09/23 10:11:33;;;;;;;58.20;2.70;;;;;;;;;;5074193;28;20491;-66
2022/09/23 10:14:10;;;;;;;58.17;2.60;;;;;;;;;;5074186;28;20467;-67
2022/09/23 10:16:37;;;;;;;57.73;2.63;;;;;;;;;;5074148;28;20455;-67
2022/09/23 10:19:11;;;;;;;59.37;2.77;;;;;;;;;;5073020;28;20490;-67
2022/09/23 10:21:41;;;;;;;57.80;2.50;;;;;;;;;;5072944;28;20540;-66
2022/09/23 10:24:08;;;;;;;57.73;2.40;;;;;;;;;;5072916;28;20479;-66
2022/09/23 10:26:45;;;;;;;57.30;2.20;;;;;;;;;;5073593;28;20443;-66
2022/09/23 10:29:23;;;;;;;57.60;2.13;;;;;;;;;;5073529;28;20966;-66
2022/09/23 10:31:52;;;;;;;57.50;1.90;;;;;;;;;;5073716;28;20489;-67
2022/09/23 10:34:23;;;;;;;57.17;2.00;;;;;;;;;;5073580;28;20486;-66
2022/09/23 10:36:56;;;;;;;58.07;2.30;;;;;;;;;;5073782;28;20448;-67
2022/09/23 10:47:55;;;;;;;57.57;2.40;;;;;;;;;;5073573;28;20458;-66
2022/09/23 10:50:37;;;;;;;57.17;1.90;;;;;;;;;;5073084;28;20967;-66
2022/09/23 10:53:10;;;;;;;57.40;2.20;;;;;;;;;;5073340;28;20491;-66
2022/09/23 10:55:43;;;;;;;57.43;2.30;;;;;;;;;;5073367;28;20911;-66
2022/09/23 10:58:34;;;;;;;57.17;2.20;;;;;;;;;;5073324;28;20450;-67
2022/09/23 11:01:06;;;;;;;57.10;2.10;;;;;;;;;;5016396;28;20452;-67
2022/09/23 11:03:48;;;;;;;56.63;1.80;;;;;;;;;;5072869;28;20961;-66
2022/09/23 11:06:20;;;;;;;57.93;2.20;;;;;;;;;;5060228;28;20824;-67
2022/09/23 11:08:54;;;;;;;58.57;2.50;;;;;;;;;;5071469;28;20449;-69
2022/09/23 11:11:27;;;;;;;57.00;2.03;;;;;;;;;;5052709;28;20476;-68
2022/09/23 11:14:03;;;;;;;57.17;2.30;;;;;;;;;;5053528;28;20483;-66
2022/09/23 11:16:37;;;;;;;57.70;2.40;;;;;;;;;;5053125;28;20462;-67
2022/09/23 11:19:20;;;;;;;59.20;2.23;;;;;;;;;;5052320;28;20509;-66
2022/09/23 11:21:57;;;;;;;57.50;2.10;;;;;;;;;;5051629;28;20460;-66
2022/09/23 11:24:41;;;;;;;57.40;2.40;;;;;;;;;;5052132;28;20460;-67
2022/09/23 11:27:15;;;;;;;57.70;2.47;;;;;;;;;;5052542;28;20444;-65
2022/09/23 11:29:53;;;;;;;57.37;2.10;;;;;;;;;;5052597;28;20448;-65
2022/09/23 11:32:27;;;;;;;58.23;2.37;;;;;;;;;;5052442;28;20503;-67
2022/09/23 11:35:02;;;;;;;57.27;2.10;;;;;;;;;;5052526;28;20480;-67
2022/09/23 11:37:31;;;;;;;57.60;2.20;;;;;;;;;;5052432;28;20536;-66
2022/09/23 11:40:02;;;;;;;57.87;2.60;;;;;;;;;;5051799;28;20444;-65
2022/09/23 11:42:31;;;;;;;57.97;1.90;;;;;;;;;;5064382;28;20865;-67
2022/09/23 11:45:00;;;;;;;57.97;2.37;;;;;;;;;;5070852;28;21011;-67
2022/09/23 11:47:29;;;;;;;57.40;2.27;;;;;;;;;;5072108;28;20439;-67
2022/09/23 11:49:58;;;;;;;57.00;2.33;;;;;;;;;;5072156;28;20447;-66
2022/09/23 11:52:28;;;;;;;57.77;2.13;;;;;;;;;;5071983;28;20486;-66
2022/09/23 11:54:58;;;;;;;58.47;2.00;;;;;;;;;;5072365;28;20467;-66
2022/09/23 11:57:28;;;;;;;57.37;2.13;;;;;;;;;;5071846;28;20447;-68
2022/09/23 11:59:59;;;;;;;57.23;2.20;;;;;;;;;;5071739;28;20462;-66
2022/09/23 12:02:28;;;;;;;57.03;2.27;;;;;;;;;;5071707;28;20447;-67
2022/09/23 12:04:59;;;;;;;57.07;2.10;;;;;;;;;;5071604;28;20466;-66
2022/09/23 12:07:29;;;;;;;57.07;2.10;;;;;;;;;;5071588;28;20552;-66
2022/09/23 12:09:58;;;;;;;57.20;2.00;;;;;;;;;;5071748;28;20443;-66
2022/09/23 12:12:30;;;;;;;57.43;2.30;;;;;;;;;;5069832;28;20497;-67
2022/09/23 12:15:00;;;;;;;56.97;2.03;;;;;;;;;;5072041;28;20467;-66
2022/09/23 12:17:41;;;;;;;58.23;2.20;;;;;;;;;;5071809;28;20458;-66
2022/09/23 12:20:17;;;;;;;56.97;2.17;;;;;;;;;;5071195;28;20448;-63
2022/09/23 12:22:51;;;;;;;57.30;2.60;;;;;;;;;;5071383;28;20462;-64
2022/09/23 12:25:33;;;;;;;56.80;2.00;;;;;;;;;;5071062;28;21046;-64
2022/09/23 12:28:04;;;;;;;56.77;2.10;;;;;;;;;;5068841;28;20459;-63
2022/09/23 12:30:34;;;;;;;57.43;2.30;;;;;;;;;;5071543;28;20443;-64
2022/09/23 12:33:08;;;;;;;58.07;2.20;;;;;;;;;;5071321;28;20494;-63
2022/09/23 12:35:38;;;;;;;57.37;2.40;;;;;;;;;;5071622;28;20544;-63
2022/09/23 12:38:12;;;;;;;57.50;2.20;;;;;;;;;;5071361;28;20466;-64
2022/09/23 12:40:43;;;;;;;57.20;2.37;;;;;;;;;;5071095;28;20505;-63
2022/09/23 12:43:17;;;;;;;57.10;2.30;;;;;;;;;;5070930;28;20478;-65
2022/09/23 12:45:45;;;;;;;56.73;2.00;;;;;;;;;;5068266;28;20533;-64
2022/09/23 12:48:43;;;;;;;57.27;2.60;;;;;;;;;;5070814;28;20452;-63
2022/09/23 12:51:18;;;;;;;57.57;2.10;;;;;;;;;;5071567;28;20444;-64
2022/09/23 12:53:58;;;;;;;57.07;2.20;;;;;;;;;;5071024;28;20474;-64
2022/09/23 12:56:27;;;;;;;56.80;1.90;;;;;;;;;;5071638;28;20478;-65
2022/09/23 12:58:59;;;;;;;57.00;2.20;;;;;;;;;;5071102;28;20451;-63
2022/09/23 13:01:26;;;;;;;57.60;2.50;;;;;;;;;;5071054;28;20447;-63
2022/09/23 13:06:41;;;;;;;57.10;2.03;;;;;;;;;;5070608;28;20516;-63
2022/09/23 13:09:09;;;;;;;56.90;1.97;;;;;;;;;;5070903;28;20446;-63
2022/09/23 13:11:40;;;;;;;57.17;2.10;;;;;;;;;;5071468;28;20443;-63
2022/09/23 13:14:08;;;;;;;57.33;2.60;;;;;;;;;;5071544;28;20516;-64
2022/09/23 13:16:37;;;;;;;57.07;2.00;;;;;;;;;;5069089;28;20458;-64
2022/09/23 13:19:05;;;;;;;57.43;2.40;;;;;;;;;;5070680;28;20927;-63
2022/09/23 13:22:05;;;;;;;57.70;2.43;;;;;;;;;;5070832;28;20475;-63
2022/09/23 13:24:38;;;;;;;57.30;2.50;;;;;;;;;;5008295;28;20466;-64
2022/09/23 13:27:06;;;;;;;57.20;2.33;;;;;;;;;;5059633;28;20469;-63
2022/09/23 13:29:39;;;;;;;56.97;2.23;;;;;;;;;;5070629;28;20482;-66
2022/09/23 13:32:11;;;;;;;57.53;2.47;;;;;;;;;;5071206;28;20960;-66
2022/09/23 13:34:39;;;;;;;57.77;2.43;;;;;;;;;;5071002;28;20474;-65
2022/09/23 13:37:17;;;;;;;57.70;2.80;;;;;;;;;;5070929;28;20443;-65
2022/09/23 13:39:44;;;;;;;57.70;2.40;;;;;;;;;;5070897;28;20431;-65
2022/09/23 13:42:15;;;;;;;57.57;2.60;;;;;;;;;;5070572;28;21030;-65
2022/09/23 13:44:44;;;;;;;57.40;2.40;;;;;;;;;;5070241;28;20486;-65
2022/09/23 13:47:13;;;;;;;57.97;2.40;;;;;;;;;;5068394;28;20477;-66
2022/09/23 13:49:41;;;;;;;58.70;2.53;;;;;;;;;;5049984;28;20463;-65
2022/09/23 13:52:22;;;;;;;57.50;2.40;;;;;;;;;;5050205;28;20452;-65
2022/09/23 13:54:50;;;;;;;57.80;2.67;;;;;;;;;;5050251;28;20463;-65
2022/09/23 13:57:24;;;;;;;57.40;2.33;;;;;;;;;;5051174;28;20466;-66
2022/09/23 13:59:53;;;;;;;59.60;2.50;;;;;;;;;;5053816;28;20533;-65
2022/09/23 14:02:24;;;;;;;57.70;2.40;;;;;;;;;;5053556;28;20480;-66
2022/09/23 14:04:51;;;;;;;58.33;2.57;;;;;;;;;;5053371;28;20850;-66
2022/09/23 14:07:20;;;;;;;59.17;2.80;;;;;;;;;;5053730;28;20448;-67
2022/09/23 14:09:49;;;;;;;57.93;2.63;;;;;;;;;;5053818;28;20448;-67
2022/09/23 14:12:20;;;;;;;57.70;2.30;;;;;;;;;;5054253;28;20444;-66
2022/09/23 14:14:49;;;;;;;57.87;2.30;;;;;;;;;;5053685;28;20474;-65
2022/09/23 14:17:18;;;;;;;58.30;3.00;;;;;;;;;;5053890;28;20513;-65
2022/09/23 14:19:46;;;;;;;58.97;2.67;;;;;;;;;;5063281;28;20443;-65
2022/09/23 14:22:22;;;;;;;57.70;2.40;;;;;;;;;;5073461;28;20837;-66
2022/09/23 14:24:49;;;;;;;58.20;2.30;;;;;;;;;;5073220;28;20482;-67
2022/09/23 14:27:18;;;;;;;57.77;2.67;;;;;;;;;;5073607;28;20458;-65
2022/09/23 14:29:47;;;;;;;57.70;2.33;;;;;;;;;;5072638;28;20450;-65
2022/09/23 14:32:16;;;;;;;57.27;2.20;;;;;;;;;;5073740;28;20443;-65
2022/09/23 14:34:46;;;;;;;58.33;2.73;;;;;;;;;;5073585;28;20490;-67
2022/09/23 14:40:10;;;;;;;60.53;2.23;;;;;;;;;;5073217;28;20939;-64
2022/09/23 14:42:40;;;;;;;58.27;2.43;;;;;;;;;;5073430;28;20489;-65
2022/09/23 14:45:08;;;;;;;58.20;2.30;;;;;;;;;;5072919;28;20562;-65
2022/09/23 14:47:35;;;;;;;57.70;2.20;;;;;;;;;;5073058;28;20486;-64
2022/09/23 14:52:49;;;;;;;58.30;3.10;;;;;;;;;;5073465;28;20429;-65
2022/09/23 14:55:17;;;;;;;58.50;2.90;;;;;;;;;;5073379;28;20466;-65
2022/09/23 14:57:45;;;;;;;58.00;2.70;;;;;;;;;;5073481;28;20462;-65
2022/09/23 15:00:16;;;;;;;57.90;2.30;;;;;;;;;;5073259;28;20792;-65
2022/09/23 15:02:44;;;;;;;57.97;2.40;;;;;;;;;;5073103;28;20485;-65
2022/09/23 15:05:18;;;;;;;59.07;3.00;;;;;;;;;;5072402;28;20475;-64
2022/09/23 15:07:47;;;;;;;57.97;2.57;;;;;;;;;;5072805;28;20451;-65